createdAt,value
2019-05-11T00:06:18.318Z,19.4
2019-05-11T00:36:18.877Z,16.3
2019-05-11T01:06:22.716Z,13.9
2019-05-11T01:36:21.037Z,12.2
2019-05-11T02:06:37.919Z,10.8
2019-05-11T02:36:23.246Z,9.9
2019-05-11T03:06:23.652Z,9.1
2019-05-11T03:36:24.913Z,8.6
2019-05-11T04:06:27.128Z,8.2
2019-05-11T04:36:28.249Z,7.9
2019-05-11T05:06:28.655Z,7.7
2019-05-11T05:36:29.606Z,7.5
2019-05-11T06:06:31.042Z,7.4
2019-05-11T06:36:31.536Z,7.4
2019-05-11T07:06:32.989Z,7.3
2019-05-11T07:36:33.907Z,7.3
2019-05-11T08:06:35.045Z,7.3
2019-05-11T08:36:34.779Z,7.3
2019-05-11T09:06:40.653Z,7.3
2019-05-11T09:36:39.525Z,7.3
2019-05-11T10:06:42.556Z,7.3
2019-05-11T10:36:40.745Z,7.3
2019-05-11T11:06:42.122Z,7.3
2019-05-11T11:36:44.653Z,7.3
2019-05-11T12:06:58.603Z,7.4
2019-05-11T12:36:49.046Z,7.4
2019-05-11T13:06:51.099Z,7.4
2019-05-11T13:36:50.951Z,7.4
2019-05-11T14:06:49.187Z,7.4
2019-05-11T14:36:50.202Z,7.4
2019-05-11T15:06:51.028Z,7.4
2019-05-11T15:36:51.150Z,7.4
2019-05-11T16:07:22.123Z,7.4
2019-05-11T16:36:51.149Z,7.4
2019-05-11T17:06:53.740Z,7.5
2019-05-11T17:36:56.697Z,7.5
2019-05-11T18:06:53.968Z,7.5
2019-05-11T18:37:01.807Z,7.5
2019-05-11T19:07:20.206Z,7.4
2019-05-11T19:36:59.325Z,7.4
2019-05-11T20:07:04.704Z,7.4
2019-05-11T20:36:59.860Z,7.4
2019-05-11T21:06:09.408Z,79
2019-05-11T21:36:13.363Z,60.9
2019-05-11T22:06:14.322Z,46.9
2019-05-11T22:36:15.602Z,36.9
2019-05-11T23:06:20.117Z,29.2
2019-05-11T23:36:20.871Z,23.6
